Flight Track Log - Related Links

Times and Time Zones

All times are in EDT time to prevent confusion due to time zone crossing. See the N6489W flight status page for this flight to view local times or setup timezone preferences in your user account.

Time Position Orientation Groundspeed Altitude Reporting Facility
EDT Latitude Longitude Course Direction KTS MPH feet Rate Location/Type
Thu 04:17:57 PM 42.5403 -83.1336 113° Southeast 103 119 1,800  Level Cleveland Center
Thu 04:19:10 PM 42.5267 -83.0906 113° Southeast 117 135 2,400 485 Climbing Cleveland Center
Thu 04:19:36 PM 42.5231 -83.0708 104° East 121 139 2,600 627 Climbing Cleveland Center
Thu 04:20:17 PM 42.5153 -83.0394 109° East 119 137 3,100 500 Climbing Cleveland Center
Thu 04:20:36 PM 42.5133 -83.0311 108° East 121 139 3,100 536 Level Cleveland Center
Thu 04:21:13 PM 42.5056 -82.9997 109° East 120 138 3,600 600 Climbing Cleveland Center
Thu 04:21:36 PM 42.4997 -82.9856 119° Southeast 121 139 3,700 492 Climbing Cleveland Center
Thu 04:22:14 PM 42.4961 -82.9572 100° East 124 143 4,100 500 Climbing Cleveland Center
Thu 04:22:36 PM 42.4922 -82.9400 107° East 121 139 4,200 545 Climbing Cleveland Center
Thu 04:23:09 PM 42.4867 -82.9117 105° East 128 147 4,600 600 Climbing Cleveland Center
Thu 04:23:36 PM 42.4808 -82.8917 112° Southeast 126 145 4,800 345 Climbing Cleveland Center
Thu 04:24:36 PM 42.4669 -82.8519 115° Southeast 131 151 5,100 150 Climbing Cleveland Center
Thu 04:25:36 PM 42.4556 -82.7981 106° East 131 151 5,100  Level Cleveland Center
Thu 04:26:36 PM 42.4419 -82.7469 110° East 131 151 5,100 100 Level Cleveland Center
Thu 04:27:36 PM 42.4303 -82.6958 107° East 131 151 5,300 300 Climbing Cleveland Center
Thu 04:28:36 PM 42.4167 -82.6447 110° East 131 151 5,700 350 Climbing Cleveland Center
Thu 04:29:36 PM 42.4050 -82.5936 107° East 131 151 6,000 500 Climbing Cleveland Center
Thu 04:30:36 PM 42.3933 -82.5456 108° East 136 157 6,700 650 Climbing Cleveland Center
Thu 04:31:36 PM 42.3797 -82.4972 111° Southeast 136 157 7,300 550 Climbing Cleveland Center
Thu 04:32:36 PM 42.3658 -82.4492 111° Southeast 131 151 7,800 550 Climbing Cleveland Center
Thu 04:33:36 PM 42.3519 -82.4039 113° Southeast 131 151 8,400 550 Climbing Cleveland Center
Thu 04:34:36 PM 42.3361 -82.3528 113° Southeast 131 151 8,900 550 Climbing Cleveland Center
Thu 04:35:36 PM 42.3244 -82.3047 108° East 131 151 9,500 600 Climbing Cleveland Center
Thu 04:36:36 PM 42.3083 -82.2592 116° Southeast 131 151 10,100 550 Climbing Cleveland Center
Thu 04:37:36 PM 42.2944 -82.2111 111° Southeast 131 151 10,600 500 Climbing Cleveland Center
Thu 04:38:36 PM 42.2825 -82.1633 109° East 131 151 11,100 550 Climbing Cleveland Center
Thu 04:39:36 PM 42.2667 -82.1094 112° Southeast 131 151 11,700 333 Climbing Cleveland Center
Thu 04:41:00 PM 42.2365 -82.0359 111° Southeast  Level FlightAware Approximate
Thu 04:44:36 PM 42.1928 -81.8528 110° East 153 176 13,100  Level Cleveland Center
Thu 04:45:36 PM 42.1767 -81.7992 111° Southeast 159 183 13,100  Level Cleveland Center
Thu 04:46:00 PM 42.1706 -81.7749 111° Southeast  Level FlightAware Approximate
Thu 04:46:36 PM 42.1606 -81.7400 110° East 154 177 13,100  Level Cleveland Center
Thu 04:47:36 PM 42.1422 -81.6864 115° Southeast 154 177 13,100  Level Cleveland Center
Thu 04:48:00 PM 42.1286 -81.6451 110° East  Level FlightAware Approximate
Thu 04:48:35 PM 42.1261 -81.6303 111° Southeast 154 177 13,100  Level Cleveland Center
Thu 04:49:00 PM 42.1132 -81.5893 110° East  Level FlightAware Approximate
Thu 04:49:36 PM 42.1078 -81.5739 114° Southeast 154 177 13,400  Level Cleveland Center
Thu 04:50:36 PM 42.0894 -81.5178 114° Southeast 154 177 13,900 450 Climbing Cleveland Center
Thu 04:51:36 PM 42.0733 -81.4642 112° Southeast 154 177 14,300 400 Climbing Cleveland Center
Thu 04:52:36 PM 42.0569 -81.4136 114° Southeast 154 177 14,700 400 Climbing Cleveland Center
Thu 04:53:00 PM 42.0590 -81.3865 111° Southeast  Level FlightAware Approximate
Thu 04:53:36 PM 42.0408 -81.3575 111° Southeast 154 177 15,100  Level Cleveland Center
Thu 04:54:36 PM 42.0264 -81.3014 109° East 154 177 15,500 350 Climbing Cleveland Center
Thu 04:55:36 PM 42.0103 -81.2483 112° Southeast 154 177 15,800 350 Climbing Cleveland Center
Thu 04:56:36 PM 41.9939 -81.1894 111° Southeast 154 177 16,200 350 Climbing Cleveland Center
Thu 04:57:36 PM 41.9775 -81.1361 112° Southeast 159 183 16,500 300 Climbing Cleveland Center
Thu 04:58:36 PM 41.9631 -81.0831 110° East 159 183 16,800 250 Climbing Cleveland Center
Thu 04:59:36 PM 41.9467 -81.0269 111° Southeast 159 183 17,000 100 Climbing Cleveland Center
Thu 05:00:36 PM 41.9281 -80.9683 113° Southeast 159 183 17,000  Level Cleveland Center
Thu 05:01:36 PM 41.9117 -80.9069 110° East 164 189 17,000  Level Cleveland Center
Thu 05:02:36 PM 41.8931 -80.8481 113° Southeast 169 194 17,000  Level Cleveland Center
Thu 05:03:36 PM 41.8744 -80.7867 112° Southeast 174 200 17,000  Level Cleveland Center
Thu 05:04:36 PM 41.8514 -80.7197 115° Southeast 174 200 17,000  Level Cleveland Center
Thu 05:05:36 PM 41.8328 -80.6611 113° Southeast 174 200 17,000  Level Cleveland Center
Thu 05:06:36 PM 41.8161 -80.6053 112° Southeast 169 194 17,000  Level Cleveland Center
Thu 05:07:36 PM 41.7994 -80.5442 110° East 169 194 17,000  Level Cleveland Center
Thu 05:08:36 PM 41.7806 -80.4858 113° Southeast 169 194 17,000  Level Cleveland Center
Thu 05:09:36 PM 41.7619 -80.4244 112° Southeast 169 194 17,000  Level Cleveland Center
Thu 05:10:36 PM 41.7472 -80.3661 109° East 169 194 17,000  Level Cleveland Center
Thu 05:11:36 PM 41.7283 -80.3078 113° Southeast 169 194 17,000  Level Cleveland Center
Thu 05:12:36 PM 41.7136 -80.2550 110° East 169 194 17,000  Level Cleveland Center
Thu 05:13:36 PM 41.6989 -80.1939 108° East 169 194 17,000  Level Cleveland Center
Thu 05:14:36 PM 41.6797 -80.1383 115° Southeast 169 194 17,000  Level Cleveland Center
Thu 05:15:36 PM 41.6628 -80.0717 109° East 169 194 17,000  Level Cleveland Center
Thu 05:16:36 PM 41.6458 -80.0108 110° East 169 194 17,000  Level Cleveland Center
Thu 05:17:36 PM 41.6269 -79.9525 113° Southeast 169 194 17,000  Level Cleveland Center
Thu 05:18:36 PM 41.6097 -79.8917 111° Southeast 169 194 17,000  Level Cleveland Center
Thu 05:19:36 PM 41.5928 -79.8364 112° Southeast 169 194 17,000  Level Cleveland Center
Thu 05:20:36 PM 41.5756 -79.7753 111° Southeast 169 194 17,000  Level Cleveland Center
Thu 05:21:36 PM 41.5564 -79.7147 113° Southeast 174 200 17,000  Level Cleveland Center
Thu 05:22:36 PM 41.5394 -79.6567 111° Southeast 174 200 17,000 50 Level Cleveland Center
Thu 05:23:36 PM 41.5200 -79.5986 114° Southeast 174 200 17,100 50 Climbing Cleveland Center
Thu 05:24:36 PM 41.5028 -79.5406 112° Southeast 174 200 17,100  Level Cleveland Center
Thu 05:25:36 PM 41.4858 -79.4883 113° Southeast 174 200 17,100  Level Cleveland Center
Thu 05:26:36 PM 41.4686 -79.4303 112° Southeast 174 200 17,100  Level Cleveland Center
Thu 05:27:36 PM 41.4492 -79.3725 114° Southeast 174 200 17,100  Level Cleveland Center
Thu 05:28:36 PM 41.4319 -79.3119 111° Southeast 174 200 17,100  Level Cleveland Center
Thu 05:29:36 PM 41.4144 -79.2486 110° East 174 200 17,100  Level Cleveland Center
Thu 05:30:36 PM 41.3928 -79.1853 114° Southeast 174 200 17,100  Level Cleveland Center
Thu 05:31:36 PM 41.3756 -79.1275 112° Southeast 174 200 17,100  Level Cleveland Center
Thu 05:32:36 PM 41.3558 -79.0728 116° Southeast 169 194 17,100  Level Cleveland Center
Thu 05:33:36 PM 41.3386 -79.0150 112° Southeast 169 194 17,100  Level Cleveland Center
Thu 05:34:36 PM 41.3211 -78.9603 113° Southeast 169 194 17,100  Level Cleveland Center
Thu 05:35:36 PM 41.3033 -78.8969 110° East 169 194 17,100  Level Cleveland Center
Thu 05:36:36 PM 41.2881 -78.8422 110° East 169 194 17,100  Level Cleveland Center
Thu 05:37:36 PM 41.2725 -78.7847 110° East 169 194 17,100  Level Cleveland Center
Thu 05:39:59 PM 41.2286 -78.6506 113° Southeast 165 190 17,100  Level New York Center
Thu 05:40:57 PM 41.2117 -78.5933 111° Southeast 165 190 17,100  Level New York Center
Thu 05:41:57 PM 41.1903 -78.5358 116° Southeast 165 190 17,100  Level New York Center
Thu 05:42:58 PM 41.1731 -78.4814 113° Southeast 165 190 17,100  Level New York Center
Thu 05:43:59 PM 41.1517 -78.4239 116° Southeast 165 190 17,100  Level New York Center
Thu 05:44:59 PM 41.1325 -78.3667 114° Southeast 165 190 17,100  Level New York Center
Thu 05:45:58 PM 41.1153 -78.3097 112° Southeast 165 190 17,100  Level New York Center
Thu 05:46:58 PM 41.0958 -78.2550 115° Southeast 165 190 17,100  Level New York Center
Thu 05:47:58 PM 41.0786 -78.1981 112° Southeast 165 190 17,100  Level New York Center
Thu 05:48:59 PM 41.0653 -78.1417 107° East 165 190 17,100  Level New York Center
Thu 05:49:57 PM 41.0544 -78.0825 104° East 160 184 17,100  Level New York Center
Thu 05:50:58 PM 41.0436 -78.0236 104° East 160 184 17,100  Level New York Center
Thu 05:51:59 PM 41.0303 -77.9672 107° East 160 184 17,100  Level New York Center
Thu 05:52:57 PM 41.0172 -77.9081 106° East 160 184 17,100  Level New York Center
Thu 05:53:57 PM 41.0058 -77.8519 105° East 170 196 17,100  Level New York Center
Thu 05:54:58 PM 40.9931 -77.7900 105° East 170 196 17,100  Level New York Center
Thu 05:55:59 PM 40.9800 -77.7281 106° East 170 196 17,100  Level New York Center
Thu 05:56:57 PM 40.9669 -77.6661 106° East 170 196 17,100  Level New York Center
Thu 05:57:57 PM 40.9539 -77.6044 106° East 170 196 17,100  Level New York Center
Thu 05:58:58 PM 40.9406 -77.5428 106° East 175 201 17,100  Level New York Center
Thu 05:59:58 PM 40.9275 -77.4808 106° East 175 201 17,100  Level New York Center
Thu 06:00:58 PM 40.9142 -77.4219 107° East 169 194 17,100  Level New York Center
Thu 06:01:57 PM 40.9028 -77.3631 104° East 169 194 17,100  Level New York Center
Thu 06:02:58 PM 40.8856 -77.3011 110° East 169 194 17,100  Level New York Center
Thu 06:03:58 PM 40.8742 -77.2397 104° East 169 194 17,100  Level New York Center
Thu 06:04:59 PM 40.8608 -77.1808 107° East 169 194 17,100  Level New York Center
Thu 06:06:00 PM 40.8472 -77.1217 107° East 169 194 17,100  Level New York Center
Thu 06:06:58 PM 40.8400 -77.0608 99° East 169 194 17,100 -50 Level New York Center
Thu 06:07:59 PM 40.8328 -77.0025 99° East 164 189 17,000 -298 Descending New York Center
Thu 06:08:59 PM 40.8153 -76.9378 110° East 169 194 16,500 -356 Descending New York Center
Thu 06:09:57 PM 40.7975 -76.8814 113° Southeast 175 201 16,300 -254 Descending New York Center
Thu 06:10:57 PM 40.7781 -76.8139 111° Southeast 175 201 16,000 -496 Descending New York Center
Thu 06:11:58 PM 40.7583 -76.7492 112° Southeast 182 209 15,300 -541 Descending New York Center
Thu 06:12:59 PM 40.7422 -76.6928 111° Southeast 182 209 14,900 -545 Descending New York Center
Thu 06:13:59 PM 40.7208 -76.6225 112° Southeast 182 209 14,200 -650 Descending New York Center
Thu 06:14:59 PM 40.7069 -76.5639 107° East 182 209 13,600 -1,600 Descending New York Center
Thu 06:15:59 PM 40.6875 -76.4967 111° Southeast 182 209 11,000 -3,273 Descending New York Center
Thu 06:17:00 PM 40.6711 -76.4431 112° Southeast 177 204 7,000 51 Descending New York Center
Thu 06:17:57 PM 40.6556 -76.3761 107° East 177 204 11,100 1,846 Climbing New York Center
Thu 06:18:57 PM 40.6394 -76.3203 111° Southeast 177 204 10,600 -446 Descending New York Center
Thu 06:19:58 PM 40.6258 -76.2589 106° East 177 204 10,200 -694 Descending New York Center
Thu 06:20:58 PM 40.6100 -76.1947 108° East 172 198 9,200 -496 Descending New York Center
Thu 06:21:59 PM 40.5978 -76.1392 106° East 166 191 9,200 -148 Level New York Center
Thu 06:23:00 PM 40.5836 -76.0861 109° East 155 178 8,900 -403 Descending New York Center
Thu 06:23:58 PM 40.5714 -76.0358 108° East 155 178 8,400 -407 Descending New York Center
Thu 06:24:58 PM 40.5592 -75.9778 105° East 155 178 8,100 -400 Descending New York Center
Thu 06:25:58 PM 40.5472 -75.9194 105° East 155 178 7,600 -397 Descending New York Center
Thu 06:26:59 PM 40.5536 -75.8681 81° East 144 166 7,300 -248 Descending New York Center
Thu 06:27:59 PM 40.5619 -75.8194 77° East 144 166 7,100 -102 Descending New York Center
Thu 06:28:57 PM 40.5683 -75.7681 81° East 144 166 7,100 51 Level New York Center
Thu 06:29:57 PM 40.5539 -75.7178 111° Southeast 134 154 7,200 50 Climbing New York Center
Thu 06:30:58 PM 40.5261 -75.6803 134° Southeast 134 154 7,200  Level New York Center
Thu 06:31:58 PM 40.5006 -75.6431 132° Southeast 139 160 7,200 -38 Level New York Center
Thu 06:33:34 PM 40.4667 -75.5833 127° Southeast 142 163 7,100  Descending Philadelphia TRACON
Thu 06:34:29 PM 40.4333 -75.5500 143° Southeast 139 160 7,200  Climbing Philadelphia TRACON
Thu 06:35:22 PM 40.4167 -75.5167 123° Southeast 141 162 7,100 -96 Descending Philadelphia TRACON
Thu 06:36:34 PM 40.3833 -75.4667 131° Southeast 135 155 7,000 -250 Descending Philadelphia TRACON
Thu 06:37:22 PM 40.3667 -75.4333 123° Southeast 153 176 6,600 -550 Descending Philadelphia TRACON
Thu 06:38:23 PM 40.3333 -75.3833 131° Southeast 152 175 6,000 -600 Descending Philadelphia TRACON
Thu 06:39:22 PM 40.3000 -75.3500 143° Southeast 154 177 5,400 -655 Descending Philadelphia TRACON
Thu 06:40:22 PM 40.2667 -75.3000 131° Southeast 152 175 4,700 -645 Descending Philadelphia TRACON
Thu 06:41:23 PM 40.2500 -75.2667 123° Southeast 156 180 4,100 -619 Descending Philadelphia TRACON
Thu 06:42:28 PM 40.2167 -75.2167 131° Southeast 156 180 3,400 -655 Descending Philadelphia TRACON
Thu 06:43:22 PM 40.2000 -75.1833 123° Southeast 150 173 2,800 -600 Descending Philadelphia TRACON
Thu 06:44:28 PM 40.1667 -75.1333 131° Southeast 148 170 2,200 -661 Descending Philadelphia TRACON
Thu 06:45:29 PM 40.1500 -75.0833 114° Southeast 154 177 1,400 -421 Descending Philadelphia TRACON
Thu 06:46:22 PM 40.1167 -75.0500 143° Southeast 108 124 1,400 -222 Level Philadelphia TRACON
Thu 06:47:17 PM 40.1000 -75.0333 143° Southeast 95 109 1,000 -436 Descending Philadelphia TRACON
Thu 06:49:00 PM 40.0819 -75.0106 134° Southeast  Level Estimated
Thu 06:56:00 PM 40.0819 -75.0106 134° Southeast  Level Estimated

Login

Don't have an account? Register now (free) for customized features, flight alerts, and more!